Time;durP1;ratioP1;P1;durP2;ratioP2;P2;SDS_P1;SDS_P2;PMS_P1;PMS_P2;Temp;Humidity;BMP_temperature;BMP_pressure;BME280_temperature;BME280_humidity;BME280_pressure;Samples;Min_cycle;Max_cycle;Signal;HPM_P1;HPM_P2
2021/05/16 00:01:21;;;;;;;3.17;1.30;;;12.70;91.00;;;;;;5076646;28;20059;-80
2021/05/16 00:03:48;;;;;;;1.27;1.10;;;12.80;91.00;;;;;;5076938;28;20639;-81
2021/05/16 00:06:14;;;;;;;1.83;1.13;;;12.80;91.30;;;;;;5076227;28;20051;-81
2021/05/16 00:08:40;;;;;;;1.52;1.20;;;12.80;91.10;;;;;;5077214;28;20080;-81
2021/05/16 00:11:05;;;;;;;1.73;1.40;;;12.90;91.20;;;;;;5077189;28;20091;-80
2021/05/16 00:13:31;;;;;;;2.33;1.20;;;12.90;91.10;;;;;;5076094;28;20109;-81
2021/05/16 00:15:57;;;;;;;2.30;0.75;;;12.90;91.10;;;;;;5077493;28;20048;-80
2021/05/16 00:18:22;;;;;;;1.40;1.00;;;12.80;91.00;;;;;;5076771;28;20052;-81
2021/05/16 00:20:48;;;;;;;1.55;1.00;;;12.90;91.00;;;;;;5085417;28;20051;-81
2021/05/16 00:23:14;;;;;;;1.60;1.02;;;12.90;90.90;;;;;;5076677;28;20040;-82
2021/05/16 00:25:40;;;;;;;1.38;1.00;;;12.90;91.10;;;;;;5075877;28;20047;-78
2021/05/16 00:28:05;;;;;;;1.38;1.10;;;12.90;91.10;;;;;;5077328;28;20036;-81
2021/05/16 00:30:32;;;;;;;1.65;1.00;;;12.90;91.00;;;;;;5076682;28;20036;-81
2021/05/16 00:32:59;;;;;;;1.10;1.00;;;12.90;91.00;;;;;;5071221;28;20060;-81
2021/05/16 00:35:28;;;;;;;1.83;1.10;;;12.90;91.10;;;;;;5075702;28;20041;-81
2021/05/16 00:37:54;;;;;;;2.33;1.20;;;12.80;91.10;;;;;;5075680;28;20033;-81
2021/05/16 00:40:20;;;;;;;1.48;1.08;;;12.80;91.20;;;;;;5076537;28;20039;-81
2021/05/16 00:42:47;;;;;;;1.83;0.90;;;12.70;91.30;;;;;;5076191;28;20040;-81
2021/05/16 00:45:19;;;;;;;1.65;0.98;;;12.70;91.30;;;;;;5076748;28;20040;-81
2021/05/16 00:47:56;;;;;;;2.40;1.10;;;12.70;91.30;;;;;;5068234;28;20117;-81
2021/05/16 00:50:28;;;;;;;1.38;0.82;;;12.70;91.40;;;;;;5075321;28;20558;-81
2021/05/16 00:52:54;;;;;;;0.90;0.73;;;12.70;91.40;;;;;;5076554;28;20068;-81
2021/05/16 00:55:21;;;;;;;1.10;1.00;;;12.70;91.40;;;;;;5079490;28;20461;-80
2021/05/16 00:57:47;;;;;;;1.00;0.88;;;12.60;91.40;;;;;;5077593;28;20136;-82
2021/05/16 01:00:21;;;;;;;1.05;0.95;;;12.60;91.50;;;;;;5075330;28;20344;-82
2021/05/16 01:02:47;;;;;;;2.22;1.00;;;12.60;91.60;;;;;;5076019;28;20435;-81
2021/05/16 01:05:14;;;;;;;0.77;0.73;;;12.60;91.80;;;;;;5076766;28;20135;-81
2021/05/16 01:07:40;;;;;;;1.10;1.00;;;12.60;91.80;;;;;;5075176;28;20048;-81
2021/05/16 01:10:08;;;;;;;1.70;1.15;;;12.50;91.90;;;;;;5075694;28;20036;-80
2021/05/16 01:12:42;;;;;;;1.48;1.00;;;12.50;91.90;;;;;;5075699;28;20059;-81
2021/05/16 01:15:14;;;;;;;1.33;1.00;;;12.50;92.10;;;;;;5075040;28;20033;-80
2021/05/16 01:17:40;;;;;;;1.65;1.13;;;12.40;92.20;;;;;;5075056;28;20067;-81
2021/05/16 01:20:08;;;;;;;2.03;1.10;;;12.40;92.30;;;;;;5073652;28;20067;-80
2021/05/16 01:22:34;;;;;;;1.23;1.00;;;12.40;92.40;;;;;;5075868;28;20399;-81
2021/05/16 01:25:00;;;;;;;1.02;0.82;;;12.30;92.60;;;;;;5085854;28;20051;-82
2021/05/16 01:27:25;;;;;;;2.30;1.20;;;12.30;92.70;;;;;;5078078;28;20044;-81
2021/05/16 01:29:51;;;;;;;1.50;1.20;;;12.20;92.80;;;;;;5076651;28;20100;-81
2021/05/16 01:32:20;;;;;;;1.63;1.13;;;12.20;92.80;;;;;;5078915;28;20036;-81
2021/05/16 01:34:47;;;;;;;1.58;1.40;;;12.20;93.10;;;;;;5074688;28;20039;-81
2021/05/16 01:37:14;;;;;;;1.63;1.10;;;12.20;93.20;;;;;;5075833;28;20029;-81
2021/05/16 01:39:41;;;;;;;1.58;1.30;;;12.20;93.10;;;;;;5074798;28;20481;-81
2021/05/16 01:42:07;;;;;;;2.00;1.10;;;12.20;93.10;;;;;;5074717;28;20048;-82
2021/05/16 01:44:33;;;;;;;1.77;1.15;;;12.20;93.20;;;;;;5074741;28;20516;-81
2021/05/16 01:47:02;;;;;;;1.20;1.10;;;12.20;93.30;;;;;;5074919;28;20415;-81
2021/05/16 01:49:33;;;;;;;1.10;1.00;;;12.20;93.20;;;;;;5075837;28;20048;-81
2021/05/16 01:51:58;;;;;;;1.35;0.90;;;12.20;93.30;;;;;;5074818;28;20423;-81
2021/05/16 01:54:24;;;;;;;2.00;1.45;;;12.30;93.20;;;;;;5075743;28;20130;-81
2021/05/16 01:56:50;;;;;;;1.70;0.80;;;12.30;93.10;;;;;;5075361;28;20299;-82
2021/05/16 01:59:16;;;;;;;1.33;1.17;;;12.30;93.10;;;;;;5075286;28;20040;-81
2021/05/16 02:01:42;;;;;;;1.23;1.00;;;12.30;93.00;;;;;;5075163;28;20070;-81
2021/05/16 02:04:08;;;;;;;1.42;1.23;;;12.30;93.00;;;;;;5075508;28;20040;-81
2021/05/16 02:06:34;;;;;;;0.98;0.90;;;12.30;92.90;;;;;;5080062;28;20319;-80
2021/05/16 02:09:00;;;;;;;3.17;1.20;;;12.30;92.90;;;;;;5079803;28;20040;-79
2021/05/16 02:11:25;;;;;;;2.70;1.10;;;12.30;92.90;;;;;;5074977;28;20052;-80
2021/05/16 02:13:50;;;;;;;2.05;0.70;;;12.30;93.00;;;;;;5078032;28;20036;-80
2021/05/16 02:16:18;;;;;;;1.92;1.10;;;12.30;93.10;;;;;;5078995;28;20469;-80
2021/05/16 02:18:44;;;;;;;1.98;1.02;;;12.30;93.10;;;;;;5078682;28;20419;-81
2021/05/16 02:21:11;;;;;;;1.77;1.00;;;12.30;93.20;;;;;;5078860;28;20127;-80
2021/05/16 02:23:38;;;;;;;0.80;0.80;;;12.30;93.20;;;;;;5078799;28;20396;-80
2021/05/16 02:26:04;;;;;;;1.10;0.90;;;12.40;93.10;;;;;;5077741;28;20140;-80
2021/05/16 02:28:29;;;;;;;1.88;1.10;;;12.30;93.00;;;;;;5078510;28;20115;-80
2021/05/16 02:30:55;;;;;;;1.13;0.77;;;12.40;93.00;;;;;;5079005;28;20032;-80
2021/05/16 02:33:20;;;;;;;1.40;1.15;;;12.30;93.00;;;;;;5078857;28;20082;-80
2021/05/16 02:35:46;;;;;;;3.30;1.70;;;12.30;93.20;;;;;;5078655;28;20391;-80
2021/05/16 02:38:11;;;;;;;1.50;1.05;;;12.30;93.20;;;;;;5079578;28;20045;-81
2021/05/16 02:40:37;;;;;;;1.38;0.93;;;12.30;93.40;;;;;;5079129;28;20040;-81
2021/05/16 02:43:02;;;;;;;0.75;0.73;;;12.30;93.30;;;;;;5083431;28;20048;-80
2021/05/16 02:45:28;;;;;;;1.38;0.70;;;12.30;93.30;;;;;;5087170;28;20105;-81
2021/05/16 02:47:53;;;;;;;2.08;0.95;;;12.30;93.40;;;;;;5079310;28;20043;-84
2021/05/16 02:50:19;;;;;;;1.52;0.93;;;12.30;93.40;;;;;;5089157;28;20036;-81
2021/05/16 02:52:44;;;;;;;2.13;1.35;;;12.40;93.70;;;;;;5089714;28;20124;-82
2021/05/16 02:55:10;;;;;;;2.38;1.00;;;12.40;93.50;;;;;;5083878;28;20423;-82
2021/05/16 02:57:36;;;;;;;3.00;1.33;;;12.40;93.60;;;;;;5078580;28;20046;-82
2021/05/16 03:00:04;;;;;;;0.70;0.63;;;12.50;93.70;;;;;;5080015;28;20055;-82
2021/05/16 03:02:30;;;;;;;1.20;0.80;;;12.50;93.80;;;;;;5077688;28;20048;-81
2021/05/16 03:04:55;;;;;;;1.20;0.80;;;12.50;93.80;;;;;;5079263;28;20387;-82
2021/05/16 03:07:21;;;;;;;2.97;1.15;;;12.40;93.80;;;;;;5078347;28;20067;-82
2021/05/16 03:09:46;;;;;;;2.75;1.20;;;12.40;93.90;;;;;;5078234;28;20040;-82
2021/05/16 03:12:13;;;;;;;1.17;0.93;;;12.40;94.00;;;;;;5079265;28;20056;-81
2021/05/16 03:14:38;;;;;;;0.88;0.88;;;12.40;94.10;;;;;;5079159;28;20040;-81
2021/05/16 03:17:04;;;;;;;3.83;1.17;;;12.30;94.10;;;;;;5081409;28;20040;-82
2021/05/16 03:19:30;;;;;;;1.30;1.00;;;12.30;94.10;;;;;;5083367;28;20337;-80
2021/05/16 03:21:59;;;;;;;1.17;1.08;;;12.30;94.40;;;;;;5078227;28;20039;-81
2021/05/16 03:24:25;;;;;;;0.70;0.70;;;12.30;94.40;;;;;;5076161;28;20468;-81
2021/05/16 03:26:50;;;;;;;1.75;1.20;;;12.30;94.50;;;;;;5077026;28;20040;-81
2021/05/16 03:29:16;;;;;;;1.08;0.70;;;12.30;94.60;;;;;;5077540;28;20094;-81
2021/05/16 03:31:41;;;;;;;2.17;1.25;;;12.30;94.60;;;;;;5077244;28;20205;-81
2021/05/16 03:34:07;;;;;;;1.65;0.95;;;12.20;94.70;;;;;;5077034;28;20421;-81
2021/05/16 03:36:33;;;;;;;1.20;1.08;;;12.20;94.90;;;;;;5077980;28;20504;-81
2021/05/16 03:38:59;;;;;;;4.47;1.08;;;12.20;94.70;;;;;;5077087;28;20032;-82
2021/05/16 03:41:24;;;;;;;1.88;1.10;;;12.10;94.90;;;;;;5077448;28;20151;-81
2021/05/16 03:43:50;;;;;;;1.10;1.00;;;12.10;94.90;;;;;;5076149;28;20127;-82
2021/05/16 03:46:16;;;;;;;2.85;1.10;;;12.10;95.00;;;;;;5077080;28;20043;-82
2021/05/16 03:48:42;;;;;;;2.70;0.80;;;12.10;95.00;;;;;;5076526;28;20048;-81
2021/05/16 03:51:08;;;;;;;1.90;0.85;;;12.10;94.80;;;;;;5077216;28;20040;-81
2021/05/16 03:53:33;;;;;;;2.10;0.85;;;12.00;94.80;;;;;;5079799;28;20275;-80
2021/05/16 03:55:59;;;;;;;2.83;1.00;;;12.00;94.90;;;;;;5088222;28;20422;-82
2021/05/16 03:58:24;;;;;;;1.17;1.00;;;12.00;94.90;;;;;;5077200;28;20068;-81
2021/05/16 04:00:50;;;;;;;1.27;0.80;;;12.00;95.20;;;;;;5077417;28;20071;-81
2021/05/16 04:03:16;;;;;;;0.80;0.80;;;12.00;94.90;;;;;;5075987;28;20117;-81
2021/05/16 04:05:41;;;;;;;1.98;0.90;;;12.00;94.90;;;;;;5077485;28;20043;-81
2021/05/16 04:08:07;;;;;;;1.27;0.80;;;12.00;95.00;;;;;;5076657;28;20645;-82
2021/05/16 04:10:33;;;;;;;0.93;0.70;;;12.00;94.80;;;;;;5077897;28;20080;-81
2021/05/16 04:12:58;;;;;;;0.73;0.73;;;12.00;94.80;;;;;;5077705;28;20040;-81
2021/05/16 04:15:25;;;;;;;1.60;1.20;;;12.10;94.80;;;;;;5075822;28;20032;-82
2021/05/16 04:17:50;;;;;;;0.55;0.55;;;12.10;94.60;;;;;;5076718;28;20095;-81
2021/05/16 04:20:16;;;;;;;0.85;0.80;;;12.10;94.70;;;;;;5075845;28;20111;-81
2021/05/16 04:22:41;;;;;;;0.55;0.55;;;12.00;94.70;;;;;;5076803;28;20287;-81
2021/05/16 04:25:08;;;;;;;0.60;0.50;;;12.00;94.60;;;;;;5076256;28;20533;-81
2021/05/16 04:27:33;;;;;;;0.90;0.77;;;12.00;94.60;;;;;;5076411;28;20047;-82
2021/05/16 04:29:59;;;;;;;2.90;0.50;;;12.00;94.40;;;;;;5083564;28;20669;-82
2021/05/16 04:32:24;;;;;;;0.73;0.50;;;12.00;94.50;;;;;;5079210;28;20359;-82
2021/05/16 04:34:50;;;;;;;0.65;0.63;;;12.00;94.70;;;;;;5075941;28;20033;-81
2021/05/16 04:37:15;;;;;;;0.50;0.50;;;12.10;94.60;;;;;;5077013;28;20115;-81
2021/05/16 04:39:40;;;;;;;0.80;0.50;;;12.10;94.30;;;;;;5076069;28;20292;-82
2021/05/16 04:42:06;;;;;;;1.05;0.63;;;12.10;94.50;;;;;;5076928;28;20060;-81
2021/05/16 04:44:32;;;;;;;1.88;0.88;;;12.10;94.20;;;;;;5076285;28;20408;-82
2021/05/16 04:46:57;;;;;;;0.70;0.60;;;12.20;94.20;;;;;;5075934;28;20407;-82
2021/05/16 04:49:23;;;;;;;1.08;0.93;;;12.10;94.10;;;;;;5076896;28;20556;-82
2021/05/16 04:51:48;;;;;;;0.65;0.55;;;12.20;94.40;;;;;;5076888;28;20044;-82
2021/05/16 04:54:14;;;;;;;0.77;0.60;;;12.30;94.40;;;;;;5076743;28;20040;-82
2021/05/16 04:56:39;;;;;;;0.57;0.50;;;12.30;94.60;;;;;;5075817;28;20450;-81
2021/05/16 04:59:05;;;;;;;1.05;0.80;;;12.30;94.50;;;;;;5076063;28;20037;-82
2021/05/16 05:01:31;;;;;;;0.77;0.63;;;12.40;94.40;;;;;;5076411;28;20435;-81
2021/05/16 05:03:58;;;;;;;0.60;0.60;;;12.40;94.30;;;;;;5076970;28;20101;-81
2021/05/16 05:06:24;;;;;;;0.93;0.70;;;12.50;94.40;;;;;;5082665;28;20127;-80
2021/05/16 05:08:49;;;;;;;1.15;0.77;;;12.50;94.30;;;;;;5079204;28;20071;-81
2021/05/16 05:11:15;;;;;;;1.67;0.93;;;12.50;94.20;;;;;;5075937;28;20360;-81
2021/05/16 05:13:41;;;;;;;0.80;0.50;;;12.50;94.30;;;;;;5075490;28;20036;-81
2021/05/16 05:16:06;;;;;;;1.77;1.10;;;12.60;94.40;;;;;;5074992;28;20403;-81
2021/05/16 05:18:33;;;;;;;1.13;0.98;;;12.60;94.20;;;;;;5075363;28;20075;-81
2021/05/16 05:20:59;;;;;;;0.60;0.60;;;12.60;94.30;;;;;;5074552;28;20311;-81
2021/05/16 05:23:26;;;;;;;2.25;0.73;;;12.70;94.40;;;;;;5075854;28;20036;-81
2021/05/16 05:25:52;;;;;;;2.97;1.88;;;12.60;94.10;;;;;;5075458;28;20036;-81
2021/05/16 05:28:18;;;;;;;1.38;0.60;;;12.70;94.10;;;;;;5074616;28;20043;-82
2021/05/16 05:30:44;;;;;;;0.90;0.60;;;12.80;94.20;;;;;;5075034;28;20065;-81
2021/05/16 05:33:09;;;;;;;2.78;0.82;;;12.80;94.00;;;;;;5075574;28;20041;-81
2021/05/16 05:35:35;;;;;;;3.55;0.70;;;12.90;93.60;;;;;;5074818;28;20036;-82
2021/05/16 05:38:00;;;;;;;1.20;0.75;;;13.00;93.90;;;;;;5075613;28;20047;-82
2021/05/16 05:40:26;;;;;;;2.60;0.98;;;13.10;93.70;;;;;;5075707;28;20131;-82
2021/05/16 05:42:52;;;;;;;0.93;0.77;;;13.10;93.60;;;;;;5077661;28;20040;-82
2021/05/16 05:45:17;;;;;;;1.13;0.60;;;13.20;93.60;;;;;;5075048;28;20033;-81
2021/05/16 05:47:43;;;;;;;1.50;0.80;;;13.30;93.20;;;;;;5075419;28;20036;-83
2021/05/16 05:50:09;;;;;;;2.55;0.70;;;13.30;92.90;;;;;;5076895;28;20033;-82
2021/05/16 05:52:35;;;;;;;1.30;0.60;;;13.40;92.90;;;;;;5075880;28;20072;-82
2021/05/16 05:55:00;;;;;;;2.53;0.80;;;13.40;93.10;;;;;;5075820;28;20071;-82
2021/05/16 05:57:26;;;;;;;1.77;0.73;;;13.50;93.10;;;;;;5075504;28;20074;-82
2021/05/16 05:59:51;;;;;;;1.45;0.77;;;13.60;92.10;;;;;;5076556;28;20113;-81
2021/05/16 06:02:17;;;;;;;1.30;0.75;;;13.60;92.60;;;;;;5075283;28;20036;-82
2021/05/16 06:04:42;;;;;;;1.33;0.70;;;13.70;93.50;;;;;;5075755;28;20048;-83
2021/05/16 06:07:08;;;;;;;0.85;0.60;;;13.80;92.30;;;;;;5075387;28;20044;-81
2021/05/16 06:09:35;;;;;;;3.83;1.25;;;13.80;91.80;;;;;;5075953;28;20322;-80
2021/05/16 06:12:04;;;;;;;5.35;0.85;;;13.90;90.80;;;;;;5075458;28;20323;-81
2021/05/16 06:14:30;;;;;;;0.65;0.55;;;13.90;90.80;;;;;;5074284;28;20327;-82
2021/05/16 06:16:55;;;;;;;1.63;0.60;;;14.00;90.00;;;;;;5076157;28;20265;-81
2021/05/16 06:19:21;;;;;;;5.30;0.93;;;13.90;90.00;;;;;;5075789;28;20043;-81
2021/05/16 06:21:46;;;;;;;1.20;0.60;;;13.90;90.00;;;;;;5074904;28;20193;-81
2021/05/16 06:24:13;;;;;;;1.45;0.70;;;13.90;89.90;;;;;;5074086;28;20040;-81
2021/05/16 06:26:41;;;;;;;1.73;1.08;;;13.80;90.30;;;;;;5075009;28;20093;-81
2021/05/16 06:29:09;;;;;;;1.63;0.63;;;13.70;90.20;;;;;;5074626;28;20044;-82
2021/05/16 06:31:35;;;;;;;2.55;0.70;;;13.60;90.50;;;;;;5075720;28;20048;-82
2021/05/16 06:34:01;;;;;;;1.95;0.68;;;13.60;90.30;;;;;;5074528;28;20040;-82
2021/05/16 06:36:27;;;;;;;1.92;1.17;;;13.60;90.50;;;;;;5075548;28;20127;-82
2021/05/16 06:38:53;;;;;;;4.03;1.00;;;13.50;90.70;;;;;;5075146;28;20036;-82
2021/05/16 06:41:19;;;;;;;2.25;0.85;;;13.50;90.80;;;;;;5075072;28;20043;-82
2021/05/16 06:43:46;;;;;;;0.75;0.65;;;13.60;91.00;;;;;;5075168;28;20097;-82
2021/05/16 06:46:12;;;;;;;4.22;0.80;;;13.60;90.90;;;;;;5074290;28;20045;-82
2021/05/16 06:48:37;;;;;;;1.52;0.82;;;13.70;90.90;;;;;;5073807;28;20040;-82
2021/05/16 06:51:03;;;;;;;2.10;0.70;;;13.90;91.00;;;;;;5075477;28;20048;-82
2021/05/16 06:53:30;;;;;;;1.30;0.80;;;14.00;90.70;;;;;;5075422;28;20079;-82
2021/05/16 06:55:56;;;;;;;2.20;0.50;;;14.10;89.80;;;;;;5074998;28;20506;-82
2021/05/16 06:58:21;;;;;;;1.50;0.60;;;14.20;90.40;;;;;;5074752;28;20115;-82
2021/05/16 07:00:47;;;;;;;2.67;0.52;;;14.20;90.00;;;;;;5078926;28;20075;-82
2021/05/16 07:03:12;;;;;;;2.03;0.98;;;14.30;89.70;;;;;;5078776;28;20090;-82
2021/05/16 07:05:38;;;;;;;2.35;0.82;;;14.40;87.80;;;;;;5083361;28;20044;-81
2021/05/16 07:08:04;;;;;;;4.00;1.25;;;14.40;86.10;;;;;;5088038;28;20041;-82
2021/05/16 07:10:29;;;;;;;3.00;0.82;;;14.50;85.60;;;;;;5086411;28;20040;-82
2021/05/16 07:12:55;;;;;;;6.63;0.75;;;14.50;83.90;;;;;;5080196;28;20098;-81
2021/05/16 07:15:21;;;;;;;5.22;0.90;;;14.50;84.20;;;;;;5079612;28;20033;-82
2021/05/16 07:17:48;;;;;;;2.97;0.88;;;14.40;86.00;;;;;;5079382;28;20044;-82
2021/05/16 07:20:14;;;;;;;3.15;0.60;;;14.50;84.10;;;;;;5078322;28;20539;-81
2021/05/16 07:22:40;;;;;;;1.92;0.47;;;14.50;82.60;;;;;;5078297;28;20066;-82
2021/05/16 07:25:06;;;;;;;2.28;0.65;;;14.50;83.60;;;;;;5078367;28;20036;-81
2021/05/16 07:27:31;;;;;;;3.60;1.10;;;14.60;83.30;;;;;;5074560;28;20550;-81
2021/05/16 07:29:57;;;;;;;4.10;1.52;;;14.60;83.30;;;;;;5078391;28;20064;-81
2021/05/16 07:32:22;;;;;;;2.25;1.52;;;14.70;83.80;;;;;;5076904;28;20098;-81
2021/05/16 07:34:48;;;;;;;2.65;0.80;;;14.70;83.40;;;;;;5074501;28;20044;-81
2021/05/16 07:37:13;;;;;;;3.28;0.80;;;14.80;84.20;;;;;;5078677;28;20099;-82
2021/05/16 07:39:39;;;;;;;1.60;1.25;;;14.90;83.60;;;;;;5077307;28;20292;-82
2021/05/16 07:42:05;;;;;;;3.03;0.80;;;15.00;82.90;;;;;;5078067;28;20040;-82
2021/05/16 07:44:31;;;;;;;1.23;0.52;;;15.10;83.00;;;;;;5077203;28;20391;-82
2021/05/16 07:46:57;;;;;;;2.80;0.90;;;15.20;81.00;;;;;;5077376;28;20041;-82
2021/05/16 07:49:23;;;;;;;1.25;0.70;;;15.30;81.60;;;;;;5077901;28;20036;-82
2021/05/16 07:51:48;;;;;;;2.17;0.80;;;15.40;80.70;;;;;;5070250;28;20489;-82
2021/05/16 07:54:14;;;;;;;3.28;0.70;;;15.40;81.10;;;;;;5077256;28;20391;-82
2021/05/16 07:56:39;;;;;;;3.17;0.90;;;15.40;81.10;;;;;;5076013;28;20036;-81
2021/05/16 07:59:05;;;;;;;4.63;1.10;;;15.40;81.50;;;;;;5076865;28;20335;-83
2021/05/16 08:01:30;;;;;;;6.35;1.10;;;15.40;80.00;;;;;;5077204;28;20670;-82
2021/05/16 08:03:56;;;;;;;3.58;0.90;;;15.40;81.00;;;;;;5077682;28;20071;-81
2021/05/16 08:06:22;;;;;;;5.47;2.97;;;15.40;81.00;;;;;;5076669;28;20404;-81
2021/05/16 08:08:47;;;;;;;8.30;2.22;;;15.50;78.20;;;;;;5076103;28;20197;-82
2021/05/16 08:11:13;;;;;;;3.63;1.17;;;15.50;79.10;;;;;;5077285;28;20067;-81
2021/05/16 08:13:38;;;;;;;5.13;2.20;;;15.70;80.60;;;;;;5077083;28;20300;-81
2021/05/16 08:16:04;;;;;;;5.15;2.15;;;15.80;77.90;;;;;;5074233;28;20048;-82
2021/05/16 08:18:29;;;;;;;4.85;2.08;;;15.90;77.60;;;;;;5076957;28;20094;-81
2021/05/16 08:20:55;;;;;;;3.25;2.00;;;15.70;78.00;;;;;;5077497;28;20040;-81
2021/05/16 08:23:20;;;;;;;4.35;1.30;;;15.60;78.20;;;;;;5076785;28;20348;-81
2021/05/16 08:25:46;;;;;;;2.58;1.10;;;15.60;78.20;;;;;;5076541;28;20040;-81
2021/05/16 08:28:12;;;;;;;2.05;0.88;;;15.60;79.20;;;;;;5077598;28;20072;-81
2021/05/16 08:30:38;;;;;;;5.78;3.85;;;15.60;77.90;;;;;;5076974;28;20032;-81
2021/05/16 08:33:04;;;;;;;4.38;2.88;;;15.70;77.50;;;;;;5077348;28;20277;-81
2021/05/16 08:35:29;;;;;;;3.25;1.52;;;15.80;80.00;;;;;;5077187;28;20040;-82
2021/05/16 08:37:55;;;;;;;4.03;0.80;;;16.00;78.10;;;;;;5076741;28;20040;-82
2021/05/16 08:40:21;;;;;;;1.63;0.50;;;16.00;76.60;;;;;;5077586;28;20046;-82
2021/05/16 08:42:46;;;;;;;3.38;0.88;;;16.10;76.70;;;;;;5079991;28;20032;-82
2021/05/16 08:45:13;;;;;;;2.28;1.10;;;16.10;77.40;;;;;;5077162;28;20040;-82
2021/05/16 08:47:42;;;;;;;2.38;1.15;;;16.10;77.80;;;;;;5076595;28;20075;-82
2021/05/16 08:50:10;;;;;;;4.72;1.20;;;16.30;77.50;;;;;;5075918;28;20037;-82
2021/05/16 08:52:36;;;;;;;2.80;0.85;;;16.50;73.90;;;;;;5076369;28;20057;-81
2021/05/16 08:55:04;;;;;;;2.58;0.90;;;16.70;78.20;;;;;;5077234;28;20106;-83
2021/05/16 08:57:29;;;;;;;1.23;0.60;;;17.00;74.30;;;;;;5075910;28;20036;-83
2021/05/16 09:00:15;;;;;;;5.03;0.82;;;17.30;74.60;;;;;;5076387;28;20050;-83
2021/05/16 09:02:59;;;;;;;4.40;1.20;;;17.40;73.00;;;;;;5076032;28;20071;-82
2021/05/16 09:05:26;;;;;;;2.55;0.73;;;17.50;72.20;;;;;;5076201;28;20276;-83
2021/05/16 09:08:06;;;;;;;3.53;1.35;;;17.50;73.50;;;;;;5076441;28;20040;-82
2021/05/16 09:10:33;;;;;;;1.83;1.00;;;17.40;72.90;;;;;;5074961;28;20040;-83
2021/05/16 09:13:14;;;;;;;5.05;0.90;;;17.40;72.00;;;;;;5075150;28;20338;-83
2021/05/16 09:15:40;;;;;;;1.92;0.77;;;17.40;69.00;;;;;;5068067;28;20036;-82
2021/05/16 09:18:05;;;;;;;2.97;0.57;;;17.40;69.60;;;;;;5075581;28;20047;-82
2021/05/16 09:20:31;;;;;;;1.38;0.52;;;17.50;69.30;;;;;;5076814;28;20342;-82
2021/05/16 09:22:57;;;;;;;4.68;0.77;;;17.60;70.90;;;;;;5075964;28;20036;-82
2021/05/16 09:25:26;;;;;;;3.25;0.93;;;17.80;70.00;;;;;;5074931;28;20036;-83
2021/05/16 09:28:08;;;;;;;2.72;0.70;;;17.80;69.00;;;;;;5073795;28;20036;-82
2021/05/16 09:30:36;;;;;;;1.58;0.65;;;17.90;68.90;;;;;;5077290;28;20097;-83
2021/05/16 09:33:07;;;;;;;4.40;0.98;;;18.00;68.40;;;;;;5073741;28;20415;-83
2021/05/16 09:35:39;;;;;;;3.90;1.00;;;17.90;69.70;;;;;;5075096;28;20085;-83
2021/05/16 09:38:12;;;;;;;3.20;0.95;;;18.00;69.00;;;;;;5075118;28;20597;-82
2021/05/16 09:40:48;;;;;;;4.53;1.25;;;18.10;72.20;;;;;;5075390;28;20101;-82
2021/05/16 09:43:15;;;;;;;5.57;1.10;;;18.10;68.80;;;;;;5075390;28;20115;-82
2021/05/16 09:45:49;;;;;;;6.53;1.90;;;18.40;68.40;;;;;;5074871;28;20044;-82
2021/05/16 09:48:16;;;;;;;2.88;0.80;;;18.50;65.30;;;;;;5075459;28;20032;-82
2021/05/16 09:50:41;;;;;;;2.75;0.70;;;18.60;66.30;;;;;;5074238;28;20079;-82
2021/05/16 09:53:07;;;;;;;5.40;1.05;;;18.60;67.20;;;;;;5076055;28;20310;-83
2021/05/16 09:55:35;;;;;;;3.33;0.80;;;18.70;68.30;;;;;;5076167;28;20086;-83
2021/05/16 09:58:01;;;;;;;2.63;0.80;;;18.80;67.70;;;;;;5070042;28;20289;-83
2021/05/16 10:00:27;;;;;;;3.42;0.93;;;18.80;66.70;;;;;;5073485;28;20044;-82
2021/05/16 10:02:52;;;;;;;1.92;0.80;;;18.80;67.60;;;;;;5075168;28;20178;-83
2021/05/16 10:05:18;;;;;;;2.17;0.90;;;18.80;67.70;;;;;;5075198;28;20101;-83
2021/05/16 10:07:43;;;;;;;5.35;1.08;;;18.90;65.00;;;;;;5075150;28;20051;-82
2021/05/16 10:10:13;;;;;;;3.58;0.80;;;18.90;65.00;;;;;;5075500;28;20072;-82
2021/05/16 10:12:42;;;;;;;4.22;0.75;;;19.00;67.20;;;;;;5072420;28;20139;-83
2021/05/16 10:15:20;;;;;;;4.25;1.00;;;19.10;66.10;;;;;;5074845;28;20417;-83
2021/05/16 10:17:56;;;;;;;2.60;0.80;;;19.10;64.00;;;;;;5074591;28;20098;-83
2021/05/16 10:20:25;;;;;;;3.83;0.90;;;19.20;65.60;;;;;;5073282;28;20068;-82
2021/05/16 10:22:58;;;;;;;3.92;0.80;;;19.10;65.70;;;;;;5072793;28;20032;-82
2021/05/16 10:25:44;;;;;;;3.75;0.80;;;19.10;63.40;;;;;;5073600;28;20040;-82
2021/05/16 10:28:12;;;;;;;5.30;1.05;;;19.00;63.60;;;;;;5073656;28;20047;-83
2021/05/16 10:30:38;;;;;;;3.03;1.08;;;19.00;64.70;;;;;;5075615;28;20039;-83
2021/05/16 10:33:04;;;;;;;1.55;0.77;;;19.00;64.30;;;;;;5074346;28;20047;-82
2021/05/16 10:35:55;;;;;;;3.42;1.05;;;19.10;64.20;;;;;;5077719;28;20028;-82
2021/05/16 10:38:34;;;;;;;2.65;0.70;;;19.10;64.70;;;;;;5064601;28;20131;-82
2021/05/16 10:41:18;;;;;;;3.17;0.90;;;19.10;62.30;;;;;;5079270;28;20051;-82
2021/05/16 10:43:44;;;;;;;3.45;0.80;;;19.10;63.00;;;;;;5078789;28;20333;-81
2021/05/16 10:46:41;;;;;;;4.75;1.08;;;19.10;63.50;;;;;;5078466;28;20311;-81
2021/05/16 10:49:27;;;;;;;3.00;0.80;;;19.30;64.70;;;;;;5078578;28;20036;-83
2021/05/16 10:51:55;;;;;;;2.58;0.90;;;19.40;62.30;;;;;;5077776;28;20763;-83
2021/05/16 10:54:32;;;;;;;2.78;0.60;;;19.50;63.70;;;;;;5078677;28;20454;-82
2021/05/16 10:57:18;;;;;;;2.33;0.90;;;19.50;63.80;;;;;;5078893;28;20047;-82
2021/05/16 10:59:45;;;;;;;2.67;1.02;;;19.60;69.00;;;;;;5078572;28;20032;-82
2021/05/16 11:02:11;;;;;;;1.77;0.60;;;19.70;68.40;;;;;;5077925;28;20129;-82
2021/05/16 11:04:47;;;;;;;4.32;1.92;;;19.60;63.40;;;;;;5077634;28;20106;-82
2021/05/16 11:07:35;;;;;;;3.30;1.00;;;19.60;64.60;;;;;;5073688;28;20032;-81
2021/05/16 11:10:26;;;;;;;3.13;0.93;;;19.70;63.00;;;;;;5078024;28;20126;-82
2021/05/16 11:12:52;;;;;;;4.50;0.80;;;19.90;66.90;;;;;;5077719;28;20097;-82
2021/05/16 11:15:25;;;;;;;3.28;0.65;;;20.00;64.60;;;;;;5077788;28;20044;-82
2021/05/16 11:17:51;;;;;;;2.45;0.60;;;20.20;63.50;;;;;;5073042;28;20097;-82
2021/05/16 11:20:20;;;;;;;1.85;0.70;;;20.20;59.00;;;;;;5077945;28;20102;-82
2021/05/16 11:22:46;;;;;;;1.13;0.70;;;20.30;59.60;;;;;;5086556;28;20040;-82
2021/05/16 11:25:11;;;;;;;2.78;0.70;;;20.40;58.60;;;;;;5083030;28;20425;-82
2021/05/16 11:27:37;;;;;;;0.90;0.50;;;20.50;58.90;;;;;;5079614;28;20053;-81
2021/05/16 11:30:12;;;;;;;3.47;0.80;;;20.60;55.10;;;;;;5078197;28;20033;-82
2021/05/16 11:32:37;;;;;;;2.00;0.70;;;20.50;58.00;;;;;;5076887;28;20090;-82
2021/05/16 11:35:09;;;;;;;3.00;0.57;;;20.30;59.10;;;;;;5077344;28;20044;-81
2021/05/16 11:37:35;;;;;;;2.42;0.80;;;20.20;58.90;;;;;;5026529;28;20053;-82
2021/05/16 11:40:21;;;;;;;3.35;0.80;;;20.20;60.40;;;;;;5017123;28;20120;-81
2021/05/16 11:42:47;;;;;;;1.88;1.13;;;20.10;61.30;;;;;;5010542;28;20073;-82
2021/05/16 11:45:15;;;;;;;3.67;1.23;;;19.90;59.70;;;;;;5008849;28;20439;-81
2021/05/16 11:47:42;;;;;;;2.83;0.68;;;19.70;57.80;;;;;;5018109;28;20037;-81
2021/05/16 11:50:13;;;;;;;3.22;0.73;;;19.60;60.30;;;;;;5018678;28;20464;-81
2021/05/16 11:52:38;;;;;;;1.02;0.82;;;19.40;61.90;;;;;;5014747;28;20038;-82
2021/05/16 11:55:07;;;;;;;4.05;1.02;;;19.20;63.60;;;;;;5016810;28;20052;-82
2021/05/16 11:57:35;;;;;;;1.40;0.60;;;19.00;66.80;;;;;;5017258;28;20073;-82
2021/05/16 12:00:09;;;;;;;3.42;0.82;;;18.90;68.40;;;;;;5006297;28;20056;-82
2021/05/16 12:02:37;;;;;;;1.42;0.57;;;18.90;70.20;;;;;;5008986;28;20425;-82
2021/05/16 12:05:04;;;;;;;3.97;1.05;;;19.00;69.10;;;;;;5013340;28;20038;-83
2021/05/16 12:07:29;;;;;;;3.45;1.40;;;19.10;70.20;;;;;;5017874;28;20126;-81
2021/05/16 12:09:56;;;;;;;1.25;0.70;;;19.20;66.70;;;;;;5016581;28;20132;-81
2021/05/16 12:12:25;;;;;;;2.55;0.70;;;19.20;66.20;;;;;;5014391;28;20117;-83
2021/05/16 12:14:55;;;;;;;2.92;0.80;;;19.20;65.10;;;;;;4999510;28;20034;-83
2021/05/16 12:17:20;;;;;;;3.88;1.40;;;19.10;63.80;;;;;;5016373;28;20050;-82
2021/05/16 12:19:46;;;;;;;3.38;0.77;;;19.00;64.50;;;;;;5016533;28;20281;-81
2021/05/16 12:22:13;;;;;;;1.30;0.75;;;19.00;66.90;;;;;;5012608;28;20053;-82
2021/05/16 12:24:48;;;;;;;3.17;0.90;;;19.10;67.20;;;;;;5011083;28;20042;-82
2021/05/16 12:27:18;;;;;;;1.73;1.10;;;19.10;67.20;;;;;;5010605;28;20053;-82
2021/05/16 12:29:47;;;;;;;3.13;1.48;;;19.00;62.40;;;;;;5013994;28;20050;-83
2021/05/16 12:32:19;;;;;;;4.00;0.70;;;19.10;64.20;;;;;;5011957;28;20113;-83
2021/05/16 12:34:45;;;;;;;3.20;0.90;;;19.30;66.50;;;;;;5008860;28;20096;-84
2021/05/16 12:37:22;;;;;;;1.52;0.80;;;19.40;64.80;;;;;;5016340;28;20030;-83
2021/05/16 12:39:53;;;;;;;2.22;0.90;;;19.60;63.30;;;;;;5016453;28;20030;-81
2021/05/16 12:42:32;;;;;;;0.88;0.63;;;19.70;61.10;;;;;;5014671;28;20278;-82
2021/05/16 12:45:19;;;;;;;1.20;0.70;;;19.70;63.00;;;;;;5011767;28;21110;-81
2021/05/16 12:47:57;;;;;;;2.40;0.73;;;19.90;62.80;;;;;;5013203;28;20056;-81
2021/05/16 12:50:31;;;;;;;2.35;0.60;;;20.20;64.00;;;;;;5014363;28;20129;-82